sensor_id;sensor_type;location;lat;lon;timestamp;temperature;humidity
14182;DHT22;7171;50.936;6.764;2022-11-20T00:01:29;5.90;99.90
14182;DHT22;7171;50.936;6.764;2022-11-20T00:03:58;5.90;99.90
14182;DHT22;7171;50.936;6.764;2022-11-20T00:06:26;5.90;99.90
14182;DHT22;7171;50.936;6.764;2022-11-20T00:08:54;5.90;99.90
14182;DHT22;7171;50.936;6.764;2022-11-20T00:11:23;5.90;99.90
14182;DHT22;7171;50.936;6.764;2022-11-20T00:13:52;5.90;99.90
14182;DHT22;7171;50.936;6.764;2022-11-20T00:16:20;5.90;99.90
14182;DHT22;7171;50.936;6.764;2022-11-20T00:18:47;5.90;99.90
14182;DHT22;7171;50.936;6.764;2022-11-20T00:21:17;5.90;99.90
14182;DHT22;7171;50.936;6.764;2022-11-20T00:23:44;6.00;99.90
14182;DHT22;7171;50.936;6.764;2022-11-20T00:26:13;6.00;99.90
14182;DHT22;7171;50.936;6.764;2022-11-20T00:28:40;6.00;99.90
14182;DHT22;7171;50.936;6.764;2022-11-20T00:31:09;6.00;99.90
14182;DHT22;7171;50.936;6.764;2022-11-20T00:33:36;6.00;99.90
14182;DHT22;7171;50.936;6.764;2022-11-20T00:36:04;6.00;99.90
14182;DHT22;7171;50.936;6.764;2022-11-20T00:38:33;6.00;99.90
14182;DHT22;7171;50.936;6.764;2022-11-20T00:41:02;6.00;99.90
14182;DHT22;7171;50.936;6.764;2022-11-20T00:43:30;6.00;99.90
14182;DHT22;7171;50.936;6.764;2022-11-20T00:45:57;6.00;99.90
14182;DHT22;7171;50.936;6.764;2022-11-20T00:48:24;6.00;99.90
14182;DHT22;7171;50.936;6.764;2022-11-20T00:50:50;6.00;99.90
14182;DHT22;7171;50.936;6.764;2022-11-20T00:53:17;6.00;99.90
14182;DHT22;7171;50.936;6.764;2022-11-20T00:55:54;6.10;99.90
14182;DHT22;7171;50.936;6.764;2022-11-20T00:58:21;6.30;99.90
14182;DHT22;7171;50.936;6.764;2022-11-20T01:00:48;6.40;99.90
14182;DHT22;7171;50.936;6.764;2022-11-20T01:03:15;6.40;99.90
14182;DHT22;7171;50.936;6.764;2022-11-20T01:05:42;6.50;99.90
14182;DHT22;7171;50.936;6.764;2022-11-20T01:08:09;6.60;99.90
14182;DHT22;7171;50.936;6.764;2022-11-20T01:10:36;6.60;99.90
14182;DHT22;7171;50.936;6.764;2022-11-20T01:13:04;6.70;99.90
14182;DHT22;7171;50.936;6.764;2022-11-20T01:15:48;6.70;99.90
14182;DHT22;7171;50.936;6.764;2022-11-20T01:18:15;6.80;99.90
14182;DHT22;7171;50.936;6.764;2022-11-20T01:20:41;6.80;99.90
14182;DHT22;7171;50.936;6.764;2022-11-20T01:23:08;6.80;99.90
14182;DHT22;7171;50.936;6.764;2022-11-20T01:25:35;5.50;99.90
14182;DHT22;7171;50.936;6.764;2022-11-20T01:28:01;6.90;99.90
14182;DHT22;7171;50.936;6.764;2022-11-20T01:30:29;6.90;99.90
14182;DHT22;7171;50.936;6.764;2022-11-20T01:32:56;6.90;99.90
14182;DHT22;7171;50.936;6.764;2022-11-20T01:35:23;7.00;99.90
14182;DHT22;7171;50.936;6.764;2022-11-20T01:37:50;7.00;99.90
14182;DHT22;7171;50.936;6.764;2022-11-20T01:40:16;7.00;99.90
14182;DHT22;7171;50.936;6.764;2022-11-20T01:42:46;6.90;99.90
14182;DHT22;7171;50.936;6.764;2022-11-20T01:45:58;6.90;99.90
14182;DHT22;7171;50.936;6.764;2022-11-20T01:48:28;6.90;99.90
14182;DHT22;7171;50.936;6.764;2022-11-20T01:50:57;6.90;99.90
14182;DHT22;7171;50.936;6.764;2022-11-20T01:53:27;6.80;99.90
14182;DHT22;7171;50.936;6.764;2022-11-20T01:55:56;6.80;99.90
14182;DHT22;7171;50.936;6.764;2022-11-20T01:58:30;6.80;99.90
14182;DHT22;7171;50.936;6.764;2022-11-20T02:00:59;6.80;99.90
14182;DHT22;7171;50.936;6.764;2022-11-20T02:03:26;6.80;99.90
14182;DHT22;7171;50.936;6.764;2022-11-20T02:05:57;6.70;99.90
14182;DHT22;7171;50.936;6.764;2022-11-20T02:08:28;6.70;99.90
14182;DHT22;7171;50.936;6.764;2022-11-20T02:10:55;6.70;99.90
14182;DHT22;7171;50.936;6.764;2022-11-20T02:13:21;6.70;99.90
14182;DHT22;7171;50.936;6.764;2022-11-20T02:16:11;6.70;99.90
14182;DHT22;7171;50.936;6.764;2022-11-20T02:18:39;6.60;99.90
14182;DHT22;7171;50.936;6.764;2022-11-20T02:21:09;6.60;99.90
14182;DHT22;7171;50.936;6.764;2022-11-20T02:23:54;6.60;99.90
14182;DHT22;7171;50.936;6.764;2022-11-20T02:26:23;6.60;99.90
14182;DHT22;7171;50.936;6.764;2022-11-20T02:28:50;6.60;99.90
14182;DHT22;7171;50.936;6.764;2022-11-20T02:31:17;6.50;99.90
14182;DHT22;7171;50.936;6.764;2022-11-20T02:33:44;6.50;99.90
14182;DHT22;7171;50.936;6.764;2022-11-20T02:36:14;6.50;99.90
14182;DHT22;7171;50.936;6.764;2022-11-20T02:38:42;6.40;99.90
14182;DHT22;7171;50.936;6.764;2022-11-20T02:41:10;6.50;99.90
14182;DHT22;7171;50.936;6.764;2022-11-20T02:43:37;6.40;99.90
14182;DHT22;7171;50.936;6.764;2022-11-20T02:46:06;6.40;99.90
14182;DHT22;7171;50.936;6.764;2022-11-20T02:48:33;6.40;99.90
14182;DHT22;7171;50.936;6.764;2022-11-20T02:51:00;6.40;99.90
14182;DHT22;7171;50.936;6.764;2022-11-20T02:53:26;6.40;99.90
14182;DHT22;7171;50.936;6.764;2022-11-20T02:55:53;7.20;99.90
14182;DHT22;7171;50.936;6.764;2022-11-20T02:58:21;6.40;99.90
14182;DHT22;7171;50.936;6.764;2022-11-20T03:00:48;6.30;99.90
14182;DHT22;7171;50.936;6.764;2022-11-20T03:03:15;6.40;99.90
14182;DHT22;7171;50.936;6.764;2022-11-20T03:05:41;6.30;99.90
14182;DHT22;7171;50.936;6.764;2022-11-20T03:08:08;6.30;99.90
14182;DHT22;7171;50.936;6.764;2022-11-20T03:10:35;6.30;99.90
14182;DHT22;7171;50.936;6.764;2022-11-20T03:13:01;6.30;99.90
14182;DHT22;7171;50.936;6.764;2022-11-20T03:15:29;6.30;99.90
14182;DHT22;7171;50.936;6.764;2022-11-20T03:17:56;6.30;99.90
14182;DHT22;7171;50.936;6.764;2022-11-20T03:20:23;6.30;99.90
14182;DHT22;7171;50.936;6.764;2022-11-20T03:22:50;6.30;99.90
14182;DHT22;7171;50.936;6.764;2022-11-20T03:25:17;6.30;99.90
14182;DHT22;7171;50.936;6.764;2022-11-20T03:27:43;6.30;99.90
14182;DHT22;7171;50.936;6.764;2022-11-20T03:30:11;6.30;99.90
14182;DHT22;7171;50.936;6.764;2022-11-20T03:32:39;6.20;99.90
14182;DHT22;7171;50.936;6.764;2022-11-20T03:35:06;6.20;99.90
14182;DHT22;7171;50.936;6.764;2022-11-20T03:37:33;6.20;99.90
14182;DHT22;7171;50.936;6.764;2022-11-20T03:40:00;6.20;99.90
14182;DHT22;7171;50.936;6.764;2022-11-20T03:42:26;6.20;99.90
14182;DHT22;7171;50.936;6.764;2022-11-20T03:45:23;6.20;99.90
14182;DHT22;7171;50.936;6.764;2022-11-20T03:47:50;6.20;99.90
14182;DHT22;7171;50.936;6.764;2022-11-20T03:50:17;6.20;99.90
14182;DHT22;7171;50.936;6.764;2022-11-20T03:52:44;6.20;99.90
14182;DHT22;7171;50.936;6.764;2022-11-20T03:55:11;6.20;99.90
14182;DHT22;7171;50.936;6.764;2022-11-20T03:57:37;6.20;99.90
14182;DHT22;7171;50.936;6.764;2022-11-20T04:00:06;6.20;99.90
14182;DHT22;7171;50.936;6.764;2022-11-20T04:02:34;6.20;99.90
14182;DHT22;7171;50.936;6.764;2022-11-20T04:05:01;6.10;99.90
14182;DHT22;7171;50.936;6.764;2022-11-20T04:07:27;6.10;99.90
14182;DHT22;7171;50.936;6.764;2022-11-20T04:09:54;6.10;99.90
14182;DHT22;7171;50.936;6.764;2022-11-20T04:12:21;6.10;99.90
14182;DHT22;7171;50.936;6.764;2022-11-20T04:14:47;6.10;99.90
14182;DHT22;7171;50.936;6.764;2022-11-20T04:17:14;6.10;99.90
14182;DHT22;7171;50.936;6.764;2022-11-20T04:19:42;6.10;99.90
14182;DHT22;7171;50.936;6.764;2022-11-20T04:22:09;6.10;99.90
14182;DHT22;7171;50.936;6.764;2022-11-20T04:24:37;6.10;99.90
14182;DHT22;7171;50.936;6.764;2022-11-20T04:27:03;6.10;99.90
14182;DHT22;7171;50.936;6.764;2022-11-20T04:29:30;6.10;99.90
14182;DHT22;7171;50.936;6.764;2022-11-20T04:31:57;6.10;99.90
14182;DHT22;7171;50.936;6.764;2022-11-20T04:34:23;6.00;99.90
14182;DHT22;7171;50.936;6.764;2022-11-20T04:36:52;6.00;99.90
14182;DHT22;7171;50.936;6.764;2022-11-20T04:39:18;5.90;99.90
14182;DHT22;7171;50.936;6.764;2022-11-20T04:41:45;5.90;99.90
14182;DHT22;7171;50.936;6.764;2022-11-20T04:44:12;5.90;99.90
14182;DHT22;7171;50.936;6.764;2022-11-20T04:46:40;5.90;99.90
14182;DHT22;7171;50.936;6.764;2022-11-20T04:49:08;5.90;99.90
14182;DHT22;7171;50.936;6.764;2022-11-20T04:51:35;5.80;99.90
14182;DHT22;7171;50.936;6.764;2022-11-20T04:54:03;5.80;99.90
14182;DHT22;7171;50.936;6.764;2022-11-20T04:56:30;5.80;99.90
14182;DHT22;7171;50.936;6.764;2022-11-20T04:59:00;5.90;99.90
14182;DHT22;7171;50.936;6.764;2022-11-20T05:01:28;5.80;99.90
14182;DHT22;7171;50.936;6.764;2022-11-20T05:03:54;5.80;99.90
14182;DHT22;7171;50.936;6.764;2022-11-20T05:06:21;5.80;99.90
14182;DHT22;7171;50.936;6.764;2022-11-20T05:08:48;5.80;99.90
14182;DHT22;7171;50.936;6.764;2022-11-20T05:11:18;5.80;99.90
14182;DHT22;7171;50.936;6.764;2022-11-20T05:13:45;5.70;99.90
14182;DHT22;7171;50.936;6.764;2022-11-20T05:16:14;5.70;99.90
14182;DHT22;7171;50.936;6.764;2022-11-20T05:18:41;5.70;99.90
14182;DHT22;7171;50.936;6.764;2022-11-20T05:21:09;5.70;99.90
14182;DHT22;7171;50.936;6.764;2022-11-20T05:23:36;5.70;99.90
14182;DHT22;7171;50.936;6.764;2022-11-20T05:26:04;5.70;99.90
14182;DHT22;7171;50.936;6.764;2022-11-20T05:28:33;5.70;99.90
14182;DHT22;7171;50.936;6.764;2022-11-20T05:31:07;5.70;99.90
14182;DHT22;7171;50.936;6.764;2022-11-20T05:33:35;5.70;99.90
14182;DHT22;7171;50.936;6.764;2022-11-20T05:36:02;5.70;99.90
14182;DHT22;7171;50.936;6.764;2022-11-20T05:38:29;5.70;99.90
14182;DHT22;7171;50.936;6.764;2022-11-20T05:41:03;5.70;99.90
14182;DHT22;7171;50.936;6.764;2022-11-20T05:43:33;5.70;99.90
14182;DHT22;7171;50.936;6.764;2022-11-20T05:46:00;5.70;99.90
14182;DHT22;7171;50.936;6.764;2022-11-20T05:48:27;5.70;99.90
14182;DHT22;7171;50.936;6.764;2022-11-20T05:50:54;5.60;99.90
14182;DHT22;7171;50.936;6.764;2022-11-20T05:53:21;5.70;99.90
14182;DHT22;7171;50.936;6.764;2022-11-20T05:55:56;5.70;99.90
14182;DHT22;7171;50.936;6.764;2022-11-20T05:58:23;5.70;99.90
14182;DHT22;7171;50.936;6.764;2022-11-20T06:00:51;5.70;99.90
14182;DHT22;7171;50.936;6.764;2022-11-20T06:03:18;5.70;99.90
14182;DHT22;7171;50.936;6.764;2022-11-20T06:05:45;5.80;99.90
14182;DHT22;7171;50.936;6.764;2022-11-20T06:08:11;5.80;99.90
14182;DHT22;7171;50.936;6.764;2022-11-20T06:10:38;5.80;99.90
14182;DHT22;7171;50.936;6.764;2022-11-20T06:13:05;5.80;99.90
14182;DHT22;7171;50.936;6.764;2022-11-20T06:15:32;5.80;99.90
14182;DHT22;7171;50.936;6.764;2022-11-20T06:18:00;5.80;99.90
14182;DHT22;7171;50.936;6.764;2022-11-20T06:20:26;5.80;99.90
14182;DHT22;7171;50.936;6.764;2022-11-20T06:22:53;5.80;99.90
14182;DHT22;7171;50.936;6.764;2022-11-20T06:25:20;5.70;99.90
14182;DHT22;7171;50.936;6.764;2022-11-20T06:27:47;5.70;99.90
14182;DHT22;7171;50.936;6.764;2022-11-20T06:30:14;5.70;99.90
14182;DHT22;7171;50.936;6.764;2022-11-20T06:32:41;5.50;99.90
14182;DHT22;7171;50.936;6.764;2022-11-20T06:35:10;5.70;99.90
14182;DHT22;7171;50.936;6.764;2022-11-20T06:37:36;5.70;99.90
14182;DHT22;7171;50.936;6.764;2022-11-20T06:40:04;5.50;99.90
14182;DHT22;7171;50.936;6.764;2022-11-20T06:42:32;5.70;99.90
14182;DHT22;7171;50.936;6.764;2022-11-20T06:44:59;5.70;99.90
14182;DHT22;7171;50.936;6.764;2022-11-20T06:47:25;5.70;99.90
14182;DHT22;7171;50.936;6.764;2022-11-20T06:49:52;5.70;99.90
14182;DHT22;7171;50.936;6.764;2022-11-20T06:52:20;5.80;99.90
14182;DHT22;7171;50.936;6.764;2022-11-20T06:54:47;5.80;99.90
14182;DHT22;7171;50.936;6.764;2022-11-20T06:57:13;5.80;99.90
14182;DHT22;7171;50.936;6.764;2022-11-20T06:59:40;5.70;99.90
14182;DHT22;7171;50.936;6.764;2022-11-20T07:02:09;5.70;99.90
14182;DHT22;7171;50.936;6.764;2022-11-20T07:04:36;5.80;99.90
14182;DHT22;7171;50.936;6.764;2022-11-20T07:07:02;5.40;99.90
14182;DHT22;7171;50.936;6.764;2022-11-20T07:09:31;5.80;99.90
14182;DHT22;7171;50.936;6.764;2022-11-20T07:11:57;5.70;99.90
14182;DHT22;7171;50.936;6.764;2022-11-20T07:14:24;5.90;99.90
14182;DHT22;7171;50.936;6.764;2022-11-20T07:16:51;5.90;99.90
14182;DHT22;7171;50.936;6.764;2022-11-20T07:19:18;6.60;99.90
14182;DHT22;7171;50.936;6.764;2022-11-20T07:21:44;5.90;99.90
14182;DHT22;7171;50.936;6.764;2022-11-20T07:24:11;5.90;99.90
14182;DHT22;7171;50.936;6.764;2022-11-20T07:26:39;5.80;99.90
14182;DHT22;7171;50.936;6.764;2022-11-20T07:29:06;6.00;99.90
14182;DHT22;7171;50.936;6.764;2022-11-20T07:31:33;6.00;99.90
14182;DHT22;7171;50.936;6.764;2022-11-20T07:33:59;6.00;99.90
14182;DHT22;7171;50.936;6.764;2022-11-20T07:36:26;6.20;99.90
14182;DHT22;7171;50.936;6.764;2022-11-20T07:38:53;7.00;99.90
14182;DHT22;7171;50.936;6.764;2022-11-20T07:41:20;6.10;99.90
14182;DHT22;7171;50.936;6.764;2022-11-20T07:43:48;6.10;99.90
14182;DHT22;7171;50.936;6.764;2022-11-20T07:46:14;6.10;99.90
14182;DHT22;7171;50.936;6.764;2022-11-20T07:48:41;6.10;99.90
14182;DHT22;7171;50.936;6.764;2022-11-20T07:51:08;6.10;99.90
14182;DHT22;7171;50.936;6.764;2022-11-20T07:53:34;6.10;99.90
14182;DHT22;7171;50.936;6.764;2022-11-20T07:56:02;6.20;99.90
14182;DHT22;7171;50.936;6.764;2022-11-20T07:58:29;6.20;99.90
14182;DHT22;7171;50.936;6.764;2022-11-20T08:01:02;6.20;99.90
14182;DHT22;7171;50.936;6.764;2022-11-20T08:03:29;6.20;99.90
14182;DHT22;7171;50.936;6.764;2022-11-20T08:05:58;6.30;99.90
14182;DHT22;7171;50.936;6.764;2022-11-20T08:08:25;6.30;99.90
14182;DHT22;7171;50.936;6.764;2022-11-20T08:10:52;6.50;99.90
14182;DHT22;7171;50.936;6.764;2022-11-20T08:13:38;6.30;99.90
14182;DHT22;7171;50.936;6.764;2022-11-20T08:16:24;6.30;99.90
14182;DHT22;7171;50.936;6.764;2022-11-20T08:18:51;6.30;99.90
14182;DHT22;7171;50.936;6.764;2022-11-20T08:21:17;6.30;99.90
14182;DHT22;7171;50.936;6.764;2022-11-20T08:23:44;6.30;99.90
14182;DHT22;7171;50.936;6.764;2022-11-20T08:26:11;6.30;99.90
14182;DHT22;7171;50.936;6.764;2022-11-20T08:28:38;6.30;99.90
14182;DHT22;7171;50.936;6.764;2022-11-20T08:31:05;6.40;99.90
14182;DHT22;7171;50.936;6.764;2022-11-20T08:33:33;6.30;99.90
14182;DHT22;7171;50.936;6.764;2022-11-20T08:36:00;6.30;99.90
14182;DHT22;7171;50.936;6.764;2022-11-20T08:38:27;6.30;99.90
14182;DHT22;7171;50.936;6.764;2022-11-20T08:40:56;6.40;99.90
14182;DHT22;7171;50.936;6.764;2022-11-20T08:43:40;6.40;99.90
14182;DHT22;7171;50.936;6.764;2022-11-20T08:46:07;6.40;99.90
14182;DHT22;7171;50.936;6.764;2022-11-20T08:48:35;6.40;99.90
14182;DHT22;7171;50.936;6.764;2022-11-20T08:51:02;6.40;99.90
14182;DHT22;7171;50.936;6.764;2022-11-20T08:53:29;6.60;99.90
14182;DHT22;7171;50.936;6.764;2022-11-20T08:55:56;6.60;99.90
14182;DHT22;7171;50.936;6.764;2022-11-20T08:58:23;6.50;99.90
14182;DHT22;7171;50.936;6.764;2022-11-20T09:00:50;6.50;99.90
14182;DHT22;7171;50.936;6.764;2022-11-20T09:03:16;6.70;99.90
14182;DHT22;7171;50.936;6.764;2022-11-20T09:05:45;6.40;99.90
14182;DHT22;7171;50.936;6.764;2022-11-20T09:08:11;6.50;99.90
14182;DHT22;7171;50.936;6.764;2022-11-20T09:10:38;6.50;99.90
14182;DHT22;7171;50.936;6.764;2022-11-20T09:13:06;6.50;99.90
14182;DHT22;7171;50.936;6.764;2022-11-20T09:15:33;6.60;99.90
14182;DHT22;7171;50.936;6.764;2022-11-20T09:18:01;6.50;99.90
14182;DHT22;7171;50.936;6.764;2022-11-20T09:20:29;6.70;99.90
14182;DHT22;7171;50.936;6.764;2022-11-20T09:22:57;6.60;99.90
14182;DHT22;7171;50.936;6.764;2022-11-20T09:25:24;6.30;99.90
14182;DHT22;7171;50.936;6.764;2022-11-20T09:27:55;6.70;99.90
14182;DHT22;7171;50.936;6.764;2022-11-20T09:32:49;7.60;99.90
14182;DHT22;7171;50.936;6.764;2022-11-20T09:35:15;6.70;99.90
14182;DHT22;7171;50.936;6.764;2022-11-20T09:37:43;6.80;99.90
14182;DHT22;7171;50.936;6.764;2022-11-20T09:40:19;6.80;99.90
14182;DHT22;7171;50.936;6.764;2022-11-20T09:42:51;6.80;99.90
14182;DHT22;7171;50.936;6.764;2022-11-20T09:45:36;6.90;99.90
14182;DHT22;7171;50.936;6.764;2022-11-20T09:48:18;6.90;99.90
14182;DHT22;7171;50.936;6.764;2022-11-20T09:50:49;6.90;99.90
14182;DHT22;7171;50.936;6.764;2022-11-20T09:53:27;6.90;99.90
14182;DHT22;7171;50.936;6.764;2022-11-20T09:56:01;6.90;99.90
14182;DHT22;7171;50.936;6.764;2022-11-20T09:58:32;6.90;99.90
14182;DHT22;7171;50.936;6.764;2022-11-20T10:01:08;6.90;99.90
14182;DHT22;7171;50.936;6.764;2022-11-20T10:03:41;6.90;99.90
14182;DHT22;7171;50.936;6.764;2022-11-20T10:06:13;6.90;99.90
14182;DHT22;7171;50.936;6.764;2022-11-20T10:08:44;7.00;99.90
14182;DHT22;7171;50.936;6.764;2022-11-20T10:11:18;7.00;99.90
14182;DHT22;7171;50.936;6.764;2022-11-20T10:13:54;7.00;99.90
14182;DHT22;7171;50.936;6.764;2022-11-20T10:16:32;7.00;99.90
14182;DHT22;7171;50.936;6.764;2022-11-20T10:19:09;7.00;99.90
14182;DHT22;7171;50.936;6.764;2022-11-20T10:21:55;7.10;99.90
14182;DHT22;7171;50.936;6.764;2022-11-20T10:24:36;7.10;99.90
14182;DHT22;7171;50.936;6.764;2022-11-20T10:27:21;7.10;99.90
14182;DHT22;7171;50.936;6.764;2022-11-20T10:30:01;7.10;99.90
14182;DHT22;7171;50.936;6.764;2022-11-20T10:32:33;7.10;99.90
14182;DHT22;7171;50.936;6.764;2022-11-20T10:35:05;7.20;99.90
14182;DHT22;7171;50.936;6.764;2022-11-20T10:37:35;7.20;99.90
14182;DHT22;7171;50.936;6.764;2022-11-20T10:40:14;7.20;99.90
14182;DHT22;7171;50.936;6.764;2022-11-20T10:42:48;7.20;99.90
14182;DHT22;7171;50.936;6.764;2022-11-20T10:45:34;7.20;99.90
14182;DHT22;7171;50.936;6.764;2022-11-20T10:48:11;7.30;99.90
14182;DHT22;7171;50.936;6.764;2022-11-20T10:50:52;7.30;99.90
14182;DHT22;7171;50.936;6.764;2022-11-20T10:53:31;7.30;99.90
14182;DHT22;7171;50.936;6.764;2022-11-20T10:56:05;7.30;99.90
14182;DHT22;7171;50.936;6.764;2022-11-20T10:58:42;7.30;99.90
14182;DHT22;7171;50.936;6.764;2022-11-20T11:01:14;7.20;99.90
14182;DHT22;7171;50.936;6.764;2022-11-20T11:03:42;7.30;99.90
14182;DHT22;7171;50.936;6.764;2022-11-20T11:06:14;7.30;99.90
14182;DHT22;7171;50.936;6.764;2022-11-20T11:08:41;7.30;99.90
14182;DHT22;7171;50.936;6.764;2022-11-20T11:11:20;7.30;99.90
14182;DHT22;7171;50.936;6.764;2022-11-20T11:13:49;7.40;99.90
14182;DHT22;7171;50.936;6.764;2022-11-20T11:16:20;7.40;99.90
14182;DHT22;7171;50.936;6.764;2022-11-20T11:18:47;7.40;99.90
14182;DHT22;7171;50.936;6.764;2022-11-20T11:21:21;7.40;99.90
14182;DHT22;7171;50.936;6.764;2022-11-20T11:23:57;7.50;99.90
14182;DHT22;7171;50.936;6.764;2022-11-20T11:26:25;7.50;99.90
14182;DHT22;7171;50.936;6.764;2022-11-20T11:28:57;7.50;99.90
14182;DHT22;7171;50.936;6.764;2022-11-20T11:31:26;7.50;99.90
14182;DHT22;7171;50.936;6.764;2022-11-20T11:34:04;7.50;99.90
14182;DHT22;7171;50.936;6.764;2022-11-20T11:36:33;7.60;99.90
14182;DHT22;7171;50.936;6.764;2022-11-20T11:39:02;7.50;99.90
14182;DHT22;7171;50.936;6.764;2022-11-20T11:41:32;7.50;99.90
14182;DHT22;7171;50.936;6.764;2022-11-20T11:44:15;7.50;99.90
14182;DHT22;7171;50.936;6.764;2022-11-20T11:47:00;7.50;99.90
14182;DHT22;7171;50.936;6.764;2022-11-20T11:49:29;7.50;99.90
14182;DHT22;7171;50.936;6.764;2022-11-20T11:52:05;7.50;99.90
14182;DHT22;7171;50.936;6.764;2022-11-20T11:54:48;7.50;99.90
14182;DHT22;7171;50.936;6.764;2022-11-20T11:57:23;7.60;99.90
14182;DHT22;7171;50.936;6.764;2022-11-20T11:59:59;7.60;99.90
14182;DHT22;7171;50.936;6.764;2022-11-20T12:02:36;7.70;99.90
14182;DHT22;7171;50.936;6.764;2022-11-20T12:05:13;7.60;99.90
14182;DHT22;7171;50.936;6.764;2022-11-20T12:07:46;7.60;99.90
14182;DHT22;7171;50.936;6.764;2022-11-20T12:10:18;7.70;99.90
14182;DHT22;7171;50.936;6.764;2022-11-20T12:12:50;7.70;99.90
14182;DHT22;7171;50.936;6.764;2022-11-20T12:15:26;7.70;99.90
14182;DHT22;7171;50.936;6.764;2022-11-20T12:17:55;7.80;99.90
14182;DHT22;7171;50.936;6.764;2022-11-20T12:20:25;7.80;99.90
14182;DHT22;7171;50.936;6.764;2022-11-20T12:22:56;7.90;99.90
14182;DHT22;7171;50.936;6.764;2022-11-20T12:25:27;8.00;99.90
14182;DHT22;7171;50.936;6.764;2022-11-20T12:31:03;8.20;99.90
14182;DHT22;7171;50.936;6.764;2022-11-20T12:34:02;8.30;99.90
14182;DHT22;7171;50.936;6.764;2022-11-20T12:36:38;8.30;99.90
14182;DHT22;7171;50.936;6.764;2022-11-20T12:39:22;8.60;99.90
14182;DHT22;7171;50.936;6.764;2022-11-20T12:42:07;8.40;99.90
14182;DHT22;7171;50.936;6.764;2022-11-20T12:45:19;8.40;99.90
14182;DHT22;7171;50.936;6.764;2022-11-20T12:48:24;8.40;99.90
14182;DHT22;7171;50.936;6.764;2022-11-20T12:51:08;8.50;99.90
14182;DHT22;7171;50.936;6.764;2022-11-20T12:56:18;8.60;99.90
14182;DHT22;7171;50.936;6.764;2022-11-20T12:58:56;8.70;99.90
14182;DHT22;7171;50.936;6.764;2022-11-20T13:01:26;8.70;99.90
14182;DHT22;7171;50.936;6.764;2022-11-20T13:04:18;8.70;99.90
14182;DHT22;7171;50.936;6.764;2022-11-20T13:06:48;8.80;99.90
14182;DHT22;7171;50.936;6.764;2022-11-20T13:09:17;8.80;99.90
14182;DHT22;7171;50.936;6.764;2022-11-20T13:11:48;8.80;99.90
14182;DHT22;7171;50.936;6.764;2022-11-20T13:14:26;8.80;99.90
14182;DHT22;7171;50.936;6.764;2022-11-20T13:17:00;8.90;99.90
14182;DHT22;7171;50.936;6.764;2022-11-20T13:19:29;8.90;99.90
14182;DHT22;7171;50.936;6.764;2022-11-20T13:21:56;8.90;99.90
14182;DHT22;7171;50.936;6.764;2022-11-20T13:24:25;9.00;99.90
14182;DHT22;7171;50.936;6.764;2022-11-20T13:27:18;9.00;99.90
14182;DHT22;7171;50.936;6.764;2022-11-20T13:29:47;9.00;99.90
14182;DHT22;7171;50.936;6.764;2022-11-20T13:32:24;9.00;99.90
14182;DHT22;7171;50.936;6.764;2022-11-20T13:34:56;9.00;99.90
14182;DHT22;7171;50.936;6.764;2022-11-20T13:37:28;9.10;99.90
14182;DHT22;7171;50.936;6.764;2022-11-20T13:40:11;9.10;99.90
14182;DHT22;7171;50.936;6.764;2022-11-20T13:42:40;9.10;99.90
14182;DHT22;7171;50.936;6.764;2022-11-20T13:45:20;9.10;99.90
14182;DHT22;7171;50.936;6.764;2022-11-20T13:47:48;9.10;99.90
14182;DHT22;7171;50.936;6.764;2022-11-20T13:50:16;9.10;99.90
14182;DHT22;7171;50.936;6.764;2022-11-20T13:52:51;9.10;99.90
14182;DHT22;7171;50.936;6.764;2022-11-20T13:55:24;9.10;99.90
14182;DHT22;7171;50.936;6.764;2022-11-20T13:58:07;9.10;99.90
14182;DHT22;7171;50.936;6.764;2022-11-20T14:00:44;9.10;99.90
14182;DHT22;7171;50.936;6.764;2022-11-20T14:03:20;9.10;99.90
14182;DHT22;7171;50.936;6.764;2022-11-20T14:05:52;9.00;99.90
14182;DHT22;7171;50.936;6.764;2022-11-20T14:08:26;9.00;99.90
14182;DHT22;7171;50.936;6.764;2022-11-20T14:11:11;9.10;99.90
14182;DHT22;7171;50.936;6.764;2022-11-20T14:13:39;9.00;99.90
14182;DHT22;7171;50.936;6.764;2022-11-20T14:16:06;9.00;99.90
14182;DHT22;7171;50.936;6.764;2022-11-20T14:18:32;9.00;99.90
14182;DHT22;7171;50.936;6.764;2022-11-20T14:21:01;9.00;99.90
14182;DHT22;7171;50.936;6.764;2022-11-20T14:23:29;9.00;99.90
14182;DHT22;7171;50.936;6.764;2022-11-20T14:25:56;9.00;99.90
14182;DHT22;7171;50.936;6.764;2022-11-20T14:28:26;9.00;99.90
14182;DHT22;7171;50.936;6.764;2022-11-20T14:30:53;9.00;99.90
14182;DHT22;7171;50.936;6.764;2022-11-20T14:33:20;9.00;99.90
14182;DHT22;7171;50.936;6.764;2022-11-20T14:35:52;9.00;99.90
14182;DHT22;7171;50.936;6.764;2022-11-20T14:38:24;9.00;99.90
14182;DHT22;7171;50.936;6.764;2022-11-20T14:40:51;9.10;99.90
14182;DHT22;7171;50.936;6.764;2022-11-20T14:43:22;9.10;99.90
14182;DHT22;7171;50.936;6.764;2022-11-20T14:45:55;9.10;99.90
14182;DHT22;7171;50.936;6.764;2022-11-20T14:48:26;9.10;99.90
14182;DHT22;7171;50.936;6.764;2022-11-20T14:50:54;9.10;99.90
14182;DHT22;7171;50.936;6.764;2022-11-20T14:53:24;9.10;99.90
14182;DHT22;7171;50.936;6.764;2022-11-20T14:55:57;9.10;99.90
14182;DHT22;7171;50.936;6.764;2022-11-20T14:58:25;9.00;99.90
14182;DHT22;7171;50.936;6.764;2022-11-20T15:00:57;9.10;99.90
14182;DHT22;7171;50.936;6.764;2022-11-20T15:03:31;9.10;99.90
14182;DHT22;7171;50.936;6.764;2022-11-20T15:05:58;9.10;99.90
14182;DHT22;7171;50.936;6.764;2022-11-20T15:08:26;9.10;99.90
14182;DHT22;7171;50.936;6.764;2022-11-20T15:10:54;9.10;99.90
14182;DHT22;7171;50.936;6.764;2022-11-20T15:13:26;9.10;99.90
14182;DHT22;7171;50.936;6.764;2022-11-20T15:15:57;9.10;99.90
14182;DHT22;7171;50.936;6.764;2022-11-20T15:18:28;9.10;99.90
14182;DHT22;7171;50.936;6.764;2022-11-20T15:20:57;9.10;99.90
14182;DHT22;7171;50.936;6.764;2022-11-20T15:23:25;9.10;99.90
14182;DHT22;7171;50.936;6.764;2022-11-20T15:25:53;9.20;99.90
14182;DHT22;7171;50.936;6.764;2022-11-20T15:28:30;9.20;99.90
14182;DHT22;7171;50.936;6.764;2022-11-20T15:30:57;9.20;99.90
14182;DHT22;7171;50.936;6.764;2022-11-20T15:33:24;9.30;99.90
14182;DHT22;7171;50.936;6.764;2022-11-20T15:35:50;9.30;99.90
14182;DHT22;7171;50.936;6.764;2022-11-20T15:38:17;9.30;99.90
14182;DHT22;7171;50.936;6.764;2022-11-20T15:40:45;9.30;99.90
14182;DHT22;7171;50.936;6.764;2022-11-20T15:43:12;9.30;99.90
14182;DHT22;7171;50.936;6.764;2022-11-20T15:45:41;9.30;99.90
14182;DHT22;7171;50.936;6.764;2022-11-20T15:48:12;9.30;99.90
14182;DHT22;7171;50.936;6.764;2022-11-20T15:50:45;9.30;99.90
14182;DHT22;7171;50.936;6.764;2022-11-20T15:53:12;9.30;99.90
14182;DHT22;7171;50.936;6.764;2022-11-20T15:55:39;9.30;99.90
14182;DHT22;7171;50.936;6.764;2022-11-20T15:58:07;9.30;99.90
14182;DHT22;7171;50.936;6.764;2022-11-20T16:00:34;9.30;99.90
14182;DHT22;7171;50.936;6.764;2022-11-20T16:03:01;9.30;99.90
14182;DHT22;7171;50.936;6.764;2022-11-20T16:05:28;9.30;99.90
14182;DHT22;7171;50.936;6.764;2022-11-20T16:07:55;9.30;99.90
14182;DHT22;7171;50.936;6.764;2022-11-20T16:10:22;9.30;99.90
14182;DHT22;7171;50.936;6.764;2022-11-20T16:12:49;9.20;99.90
14182;DHT22;7171;50.936;6.764;2022-11-20T16:15:34;9.20;99.90
14182;DHT22;7171;50.936;6.764;2022-11-20T16:18:15;9.10;99.90
14182;DHT22;7171;50.936;6.764;2022-11-20T16:20:43;9.10;99.90
14182;DHT22;7171;50.936;6.764;2022-11-20T16:23:10;9.10;99.90
14182;DHT22;7171;50.936;6.764;2022-11-20T16:25:36;9.10;99.90
14182;DHT22;7171;50.936;6.764;2022-11-20T16:28:04;9.10;99.90
14182;DHT22;7171;50.936;6.764;2022-11-20T16:30:31;9.10;99.90